Buri Ram Airport
VTUO : now visible

Airfield :











YOU CAN JOIN US ON...

 
LOGIN :

Register | Disclaimer

   EN    FR    IT 

 









Legend :    VFR   Marginal VFR   IFR   Intensive IFR   Very Intensive IFR
Visi :
Ceiling :
>= 8 km
>= 3000ft
5 to 8 km
1000 to 3000 ft
1500m to 5 km
500 to 1000 ft
800 to 1500m
200 to 500 ft
< 800m
< 200 ft
Symbols :   Thunderstorms  Fog  Heavy snow  Heavy precipitations  Wind > 20 kt






- Airport Elevation : 590 ft
- IATA code : BFV


VTUO - Buri Ram

CURRENT METAR :
  • 290600Z 26005KT 170V340 9999 SCT030 BKN100 34/21 Q1006 NOSIG

EXPIRED METARs :
  • 290500Z 23007KT 200V280 9999 FEW030 BKN100 34/22 Q1007 NOSIG
  • 290400Z 24006KT 200V280 9999 FEW030 BKN100 33/21 Q1008 NOSIG
  • 290300Z 24007KT 200V270 9999 FEW030 BKN100 32/22 Q1008 NOSIG
  • 290200Z 23005KT 200V270 9000 NSC 31/23 Q1008 NOSIG

TAF TAF VTUO
Valid from the 29 at 06:00 until the 30 at 06:00 UTC


290500Z 2906/3006 27005KT 9000 SCT030
VTBB FIR / Asia



MET'MAP, your aeronautical weather chart ! - Copyright ORBIFLY December 2007 - Disclaimer

ORBIFLY MET'MAP TEAM :

Programming & Development : Alexandra Zaïnal
Original concept : Baudouin d'Aumeries
Technical & hardware support : Manuel Goepfert
Assistance : Marc-Olivier Méhu




SOURCES & CREDITS :

   NOAA       Earth
Advisory